createdAt,value
2018-06-19T00:02:05.469Z,19.00
2018-06-19T00:05:30.937Z,19.00
2018-06-19T00:08:55.556Z,19.10
2018-06-19T00:12:20.197Z,19.10
2018-06-19T00:15:44.898Z,19.20
2018-06-19T00:19:10.118Z,19.10
2018-06-19T00:22:34.736Z,19.30
2018-06-19T00:25:59.428Z,19.30
2018-06-19T00:32:48.468Z,19.20
2018-06-19T00:36:13.085Z,19.20
2018-06-19T00:39:37.763Z,19.10
2018-06-19T00:43:02.466Z,19.00
2018-06-19T00:49:53.128Z,18.80
2018-06-19T00:53:17.800Z,18.70
2018-06-19T00:56:54.131Z,18.60
2018-06-19T01:00:18.732Z,18.50
2018-06-19T01:03:43.317Z,18.50
2018-06-19T01:07:08.246Z,18.40
2018-06-19T01:10:32.902Z,18.40
2018-06-19T01:13:57.507Z,18.30
2018-06-19T01:17:22.108Z,18.40
2018-06-19T01:20:46.880Z,18.30
2018-06-19T01:24:11.526Z,18.30
2018-06-19T01:31:00.427Z,18.10
2018-06-19T01:34:26.408Z,18.10
2018-06-19T01:37:50.977Z,18.10
2018-06-19T01:41:15.554Z,18.00
2018-06-19T01:44:40.201Z,18.00
2018-06-19T01:48:04.840Z,17.90
2018-06-19T01:51:29.430Z,18.00
2018-06-19T01:54:54.012Z,17.90
2018-06-19T01:58:18.583Z,17.80
2018-06-19T02:01:43.157Z,17.80
2018-06-19T02:05:07.795Z,17.80
2018-06-19T02:08:32.429Z,17.80
2018-06-19T02:11:57.076Z,17.80
2018-06-19T02:15:21.685Z,17.80
2018-06-19T02:18:46.316Z,17.90
2018-06-19T02:22:11.028Z,17.80
2018-06-19T02:29:00.039Z,17.70
2018-06-19T02:32:24.660Z,17.70
2018-06-19T02:35:49.394Z,17.60
2018-06-19T02:39:14.196Z,17.70
2018-06-19T02:42:38.890Z,17.60
2018-06-19T02:46:03.544Z,17.60
2018-06-19T02:52:52.402Z,17.50
2018-06-19T02:56:17.025Z,17.40
2018-06-19T02:59:41.618Z,17.40
2018-06-19T03:03:06.340Z,17.40
2018-06-19T03:06:30.978Z,17.40
2018-06-19T03:09:55.855Z,17.30
2018-06-19T03:13:20.436Z,17.30
2018-06-19T03:16:45.037Z,17.30
2018-06-19T03:20:09.730Z,17.20
2018-06-19T03:23:34.330Z,17.20
2018-06-19T03:30:23.394Z,17.20
2018-06-19T03:33:47.894Z,17.20
2018-06-19T03:40:36.738Z,17.10
2018-06-19T03:44:01.316Z,17.10
2018-06-19T03:47:26.018Z,17.10
2018-06-19T03:50:50.615Z,17.10
2018-06-19T03:54:15.217Z,17.10
2018-06-19T03:57:39.860Z,17.10
2018-06-19T04:01:04.556Z,17.10
2018-06-19T04:04:29.246Z,17.20
2018-06-19T04:11:18.377Z,17.20
2018-06-19T04:14:43.049Z,17.20
2018-06-19T04:18:07.687Z,17.20
2018-06-19T04:21:32.411Z,17.20
2018-06-19T04:24:57.652Z,17.30
2018-06-19T04:28:22.315Z,17.40
2018-06-19T04:31:46.911Z,17.40
2018-06-19T04:35:11.514Z,17.40
2018-06-19T04:38:36.178Z,17.40
2018-06-19T04:42:00.825Z,17.40
2018-06-19T04:45:25.456Z,17.50
2018-06-19T04:48:50.078Z,17.50
2018-06-19T04:52:14.681Z,17.50
2018-06-19T04:55:39.311Z,17.60
2018-06-19T04:59:03.975Z,17.50
2018-06-19T05:02:28.631Z,17.60
2018-06-19T05:05:53.307Z,17.70
2018-06-19T05:09:17.935Z,17.70
2018-06-19T05:12:42.527Z,17.80
2018-06-19T05:19:31.555Z,17.90
2018-06-19T05:22:56.163Z,17.90
2018-06-19T05:26:20.762Z,18.10
2018-06-19T05:29:45.386Z,18.20
2018-06-19T05:33:09.986Z,18.30
2018-06-19T05:36:34.671Z,18.30
2018-06-19T05:39:59.354Z,18.40
2018-06-19T05:43:23.988Z,18.50
2018-06-19T05:46:48.637Z,18.50
2018-06-19T05:50:13.271Z,18.60
2018-06-19T06:03:50.928Z,18.80
2018-06-19T06:07:15.641Z,18.90
2018-06-19T06:10:40.276Z,18.90
2018-06-19T06:17:29.160Z,19.00
2018-06-19T06:20:53.738Z,19.00
2018-06-19T06:24:18.383Z,19.10
2018-06-19T06:27:42.998Z,19.20
2018-06-19T06:34:32.054Z,19.30
2018-06-19T06:37:56.862Z,19.20
2018-06-19T06:41:21.480Z,19.20
2018-06-19T06:44:46.143Z,19.20
2018-06-19T06:48:10.863Z,19.40
2018-06-19T06:51:35.576Z,19.50
2018-06-19T06:55:00.229Z,19.70
2018-06-19T06:58:25.116Z,19.80
2018-06-19T07:01:49.810Z,19.90
2018-06-19T07:08:39.103Z,20.30
2018-06-19T07:12:03.730Z,20.40
2018-06-19T07:15:28.325Z,20.50
2018-06-19T07:18:53.023Z,20.70
2018-06-19T07:22:17.645Z,20.50
2018-06-19T07:25:42.267Z,20.50
2018-06-19T07:29:06.938Z,20.70
2018-06-19T07:32:31.558Z,20.80
2018-06-19T07:35:56.222Z,20.90
2018-06-19T07:39:20.866Z,21.00
2018-06-19T07:42:45.533Z,21.30
2018-06-19T07:49:34.508Z,21.60
2018-06-19T07:56:23.392Z,21.60
2018-06-19T07:59:48.110Z,21.70
2018-06-19T08:03:12.783Z,22.00
2018-06-19T08:06:37.336Z,21.80
2018-06-19T08:10:01.938Z,22.00
2018-06-19T08:13:26.590Z,22.20
2018-06-19T08:20:15.672Z,22.80
2018-06-19T08:23:40.466Z,22.60
2018-06-19T08:27:05.163Z,22.70
2018-06-19T08:30:29.917Z,22.80
2018-06-19T08:33:55.381Z,22.70
2018-06-19T08:37:26.424Z,22.50
2018-06-19T08:40:52.657Z,22.70
2018-06-19T08:44:18.408Z,22.60
2018-06-19T08:51:09.373Z,22.90
2018-06-19T08:54:35.132Z,23.00
2018-06-19T08:58:00.692Z,22.90
2018-06-19T09:01:28.932Z,22.90
2018-06-19T09:04:54.171Z,23.10
2018-06-19T09:08:21.710Z,23.40
2018-06-19T09:11:47.264Z,24.00
2018-06-19T09:15:16.265Z,24.50
2018-06-19T09:18:45.996Z,24.60
2018-06-19T09:22:12.137Z,24.80
2018-06-19T09:25:36.831Z,24.70
2018-06-19T09:29:01.511Z,24.60
2018-06-19T09:32:26.277Z,24.30
2018-06-19T09:35:50.958Z,24.10
2018-06-19T09:39:15.668Z,23.90
2018-06-19T09:42:40.432Z,23.70
2018-06-19T09:46:05.186Z,23.60
2018-06-19T09:49:29.842Z,24.00
2018-06-19T09:52:54.528Z,24.30
2018-06-19T09:56:19.534Z,24.30
2018-06-19T09:59:44.424Z,24.20
2018-06-19T10:03:09.288Z,24.30
2018-06-19T10:06:33.925Z,24.60
2018-06-19T10:13:22.980Z,24.80
2018-06-19T10:20:12.059Z,25.00
2018-06-19T10:25:05.703Z,25.20
2018-06-19T10:28:30.345Z,24.80
2018-06-19T10:31:54.997Z,24.50
2018-06-19T10:35:19.618Z,24.30
2018-06-19T10:38:44.330Z,24.30
2018-06-19T10:42:08.974Z,24.40
2018-06-19T10:45:35.176Z,24.30
2018-06-19T10:48:59.867Z,24.70
2018-06-19T10:52:24.552Z,25.00
2018-06-19T10:55:49.143Z,25.30
2018-06-19T10:59:13.732Z,25.70
2018-06-19T11:02:38.404Z,26.10
2018-06-19T11:06:03.064Z,26.10
2018-06-19T11:09:27.831Z,26.10
2018-06-19T11:12:52.430Z,25.40
2018-06-19T11:16:17.110Z,25.00
2018-06-19T11:19:41.753Z,25.10
2018-06-19T11:23:06.429Z,25.20
2018-06-19T11:26:31.084Z,25.30
2018-06-19T11:29:55.748Z,25.40
2018-06-19T11:33:20.468Z,25.70
2018-06-19T11:36:45.134Z,26.00
2018-06-19T11:40:09.828Z,25.50
2018-06-19T11:43:34.434Z,25.10
2018-06-19T11:46:59.298Z,25.20
2018-06-19T11:50:23.960Z,25.50
2018-06-19T11:53:48.574Z,25.40
2018-06-19T11:57:13.202Z,25.10
2018-06-19T12:00:37.986Z,24.90
2018-06-19T12:07:30.697Z,25.40
2018-06-19T12:10:55.312Z,25.80
2018-06-19T12:14:19.929Z,26.50
2018-06-19T12:24:33.120Z,26.60
2018-06-19T12:31:21.997Z,26.30
2018-06-19T12:34:46.705Z,26.40
2018-06-19T12:38:11.307Z,26.40
2018-06-19T12:41:42.774Z,26.90
2018-06-19T12:45:07.278Z,26.70
2018-06-19T12:48:31.890Z,26.80
2018-06-19T12:52:13.887Z,26.60
2018-06-19T12:55:55.871Z,26.60
2018-06-19T12:59:20.510Z,27.00
2018-06-19T13:04:01.977Z,27.00
2018-06-19T13:07:27.679Z,27.10
2018-06-19T13:10:52.501Z,27.20
2018-06-19T13:14:34.180Z,27.20
2018-06-19T13:18:16.081Z,27.20
2018-06-19T13:21:40.872Z,27.60
2018-06-19T13:25:05.540Z,27.60
2018-06-19T13:29:52.568Z,27.30
2018-06-19T13:33:17.248Z,27.50
2018-06-19T13:36:43.136Z,27.80
2018-06-19T13:41:27.003Z,28.10
2018-06-19T13:45:00.462Z,28.00
2018-06-19T13:51:49.440Z,27.90
2018-06-19T13:57:40.680Z,27.90
2018-06-19T14:01:05.499Z,27.80
2018-06-19T14:04:30.276Z,27.60
2018-06-19T14:08:16.304Z,27.80
2018-06-19T14:12:03.467Z,28.00
2018-06-19T14:15:29.694Z,28.10
2018-06-19T14:18:54.376Z,28.20
2018-06-19T14:22:18.992Z,28.10
2018-06-19T14:29:07.945Z,28.00
2018-06-19T14:32:32.560Z,27.90
2018-06-19T14:35:57.232Z,27.80
2018-06-19T14:39:22.017Z,28.30
2018-06-19T14:46:10.956Z,28.50
2018-06-19T14:49:35.603Z,28.60
2018-06-19T14:56:24.494Z,29.10
2018-06-19T14:59:49.135Z,28.70
2018-06-19T15:03:13.783Z,28.80
2018-06-19T15:06:38.427Z,28.80
2018-06-19T15:10:03.159Z,28.90
2018-06-19T15:13:27.826Z,29.20
2018-06-19T15:16:52.538Z,29.40
2018-06-19T15:27:05.996Z,29.30
2018-06-19T15:33:55.133Z,29.90
2018-06-19T15:37:19.965Z,30.20
2018-06-19T15:40:45.159Z,30.20
2018-06-19T15:44:09.882Z,30.00
2018-06-19T15:47:34.597Z,29.80
2018-06-19T15:54:23.950Z,29.70
2018-06-19T15:57:48.604Z,30.00
2018-06-19T16:01:13.297Z,30.30
2018-06-19T16:04:37.947Z,30.40
2018-06-19T16:08:08.080Z,30.70
2018-06-19T16:11:32.718Z,30.60
2018-06-19T16:14:57.484Z,30.90
2018-06-19T16:18:22.185Z,31.20
2018-06-19T16:21:46.886Z,31.40
2018-06-19T16:25:11.750Z,30.90
2018-06-19T16:28:36.378Z,30.30
2018-06-19T16:32:01.009Z,30.50
2018-06-19T16:38:50.050Z,30.70
2018-06-19T16:42:14.747Z,31.00
2018-06-19T16:45:39.396Z,30.90
2018-06-19T16:49:04.174Z,31.10
2018-06-19T16:52:28.975Z,31.00
2018-06-19T16:55:58.769Z,30.40
2018-06-19T17:02:51.292Z,30.10
2018-06-19T17:06:17.700Z,30.40
2018-06-19T17:09:45.159Z,30.80
2018-06-19T17:13:22.416Z,31.30
2018-06-19T17:16:47.304Z,30.80
2018-06-19T17:20:15.311Z,30.80
2018-06-19T17:23:41.686Z,31.00
2018-06-19T17:27:08.018Z,30.70
2018-06-19T17:30:44.268Z,31.00
2018-06-19T17:34:09.313Z,30.90
2018-06-19T17:37:34.065Z,31.10
2018-06-19T17:40:59.621Z,31.00
2018-06-19T17:47:50.669Z,30.70
2018-06-19T17:51:15.407Z,31.00
2018-06-19T17:54:40.997Z,31.20
2018-06-19T17:58:05.863Z,31.20
2018-06-19T18:01:31.457Z,30.90
2018-06-19T18:08:22.812Z,30.50
2018-06-19T18:11:47.543Z,30.60
2018-06-19T18:15:12.484Z,30.40
2018-06-19T18:22:03.038Z,30.30
2018-06-19T18:25:27.915Z,30.40
2018-06-19T18:28:53.575Z,30.30
2018-06-19T18:32:19.308Z,30.20
2018-06-19T18:35:44.868Z,30.00
2018-06-19T18:39:10.869Z,29.60
2018-06-19T18:42:35.704Z,29.30
2018-06-19T18:46:01.319Z,28.80
2018-06-19T18:49:26.609Z,28.40
2018-06-19T18:52:51.428Z,28.10
2018-06-19T18:56:16.724Z,27.80
2018-06-19T18:59:42.164Z,27.50
2018-06-19T19:03:08.102Z,27.20
2018-06-19T19:06:33.709Z,26.90
2018-06-19T19:10:04.293Z,26.60
2018-06-19T19:13:29.604Z,26.40
2018-06-19T19:20:24.282Z,26.10
2018-06-19T19:23:50.039Z,26.00
2018-06-19T19:27:20.763Z,25.80
2018-06-19T19:30:45.519Z,25.60
2018-06-19T19:37:40.908Z,25.40
2018-06-19T19:41:05.731Z,25.20
2018-06-19T19:44:30.442Z,25.00
2018-06-19T19:48:00.554Z,24.80
2018-06-19T19:51:25.662Z,24.70
2018-06-19T19:54:50.382Z,24.60
2018-06-19T19:58:22.756Z,24.50
2018-06-19T20:01:47.661Z,24.40
2018-06-19T20:09:26.031Z,24.10
2018-06-19T20:21:49.527Z,23.70
2018-06-19T20:25:14.217Z,23.70
2018-06-19T20:28:38.918Z,23.50
2018-06-19T20:32:03.948Z,23.40
2018-06-19T20:35:28.941Z,23.40
2018-06-19T20:38:53.650Z,23.30
2018-06-19T20:42:18.393Z,23.30
2018-06-19T20:45:43.088Z,23.30
2018-06-19T20:52:32.045Z,23.10
2018-06-19T20:55:56.797Z,23.00
2018-06-19T20:59:21.444Z,23.00
2018-06-19T21:02:46.053Z,23.00
2018-06-19T21:12:59.520Z,22.90
2018-06-19T21:16:24.219Z,22.90
2018-06-19T21:23:13.504Z,22.70
2018-06-19T21:26:38.067Z,22.70
2018-06-19T21:30:02.731Z,22.70
2018-06-19T21:33:27.537Z,22.60
2018-06-19T21:36:52.211Z,22.50
2018-06-19T21:43:41.212Z,22.40
2018-06-19T21:47:05.820Z,22.20
2018-06-19T21:50:30.435Z,22.00
2018-06-19T21:53:55.097Z,21.90
2018-06-19T21:57:19.720Z,21.90
2018-06-19T22:04:08.722Z,21.60
2018-06-19T22:07:33.948Z,21.50
2018-06-19T22:10:58.639Z,21.40
2018-06-19T22:14:23.241Z,21.40
2018-06-19T22:17:48.967Z,21.30
2018-06-19T22:21:13.680Z,21.20
2018-06-19T22:24:38.326Z,21.20
2018-06-19T22:28:03.174Z,21.20
2018-06-19T22:31:27.912Z,21.10
2018-06-19T22:34:53.421Z,21.10
2018-06-19T22:38:18.095Z,20.90
2018-06-19T22:41:42.734Z,20.90
2018-06-19T22:45:07.684Z,20.90
2018-06-19T22:48:32.447Z,20.80
2018-06-19T22:51:57.066Z,20.70
2018-06-19T22:55:21.854Z,20.70
2018-06-19T22:58:47.467Z,20.60
2018-06-19T23:02:12.171Z,20.60
2018-06-19T23:05:37.468Z,20.50
2018-06-19T23:09:02.288Z,20.50
2018-06-19T23:12:26.976Z,20.30
2018-06-19T23:15:51.645Z,20.30
2018-06-19T23:19:16.320Z,20.40
2018-06-19T23:22:40.978Z,20.20
2018-06-19T23:26:05.599Z,20.20
2018-06-19T23:29:30.236Z,20.20
2018-06-19T23:32:54.849Z,20.20
2018-06-19T23:36:19.636Z,20.30
2018-06-19T23:39:44.220Z,20.40
2018-06-19T23:43:08.815Z,20.20
2018-06-19T23:46:33.472Z,20.10
2018-06-19T23:49:58.170Z,20.20
2018-06-19T23:53:22.880Z,20.10
2018-06-19T23:56:47.532Z,20.10
